createdAt,value
2018-04-16T00:01:25.200Z,16.21
2018-04-16T00:03:53.043Z,16.17
2018-04-16T00:06:20.634Z,16.13
2018-04-16T00:08:48.163Z,16.08
2018-04-16T00:11:15.706Z,15.97
2018-04-16T00:13:43.246Z,16.00
2018-04-16T00:16:10.780Z,15.97
2018-04-16T00:18:38.313Z,15.96
2018-04-16T00:21:05.843Z,15.96
2018-04-16T00:23:33.391Z,15.93
2018-04-16T00:26:00.912Z,15.92
2018-04-16T00:28:28.671Z,15.91
2018-04-16T00:30:56.216Z,15.92
2018-04-16T00:33:29.455Z,15.95
2018-04-16T00:36:02.706Z,15.95
2018-04-16T00:41:51.183Z,15.80
2018-04-16T00:44:24.340Z,15.76
2018-04-16T00:46:57.387Z,15.74
2018-04-16T00:49:30.495Z,15.73
2018-04-16T00:52:03.711Z,15.73
2018-04-16T00:54:36.800Z,15.71
2018-04-16T00:57:09.982Z,15.69
2018-04-16T00:59:43.149Z,15.67
2018-04-16T01:02:16.389Z,15.66
2018-04-16T01:04:49.607Z,15.66
2018-04-16T01:07:22.735Z,15.61
2018-04-16T01:09:55.912Z,15.56
2018-04-16T01:12:28.956Z,15.52
2018-04-16T01:15:02.028Z,15.54
2018-04-16T01:17:35.298Z,15.49
2018-04-16T01:20:08.384Z,15.49
2018-04-16T01:22:41.584Z,15.49
2018-04-16T01:25:14.700Z,15.49
2018-04-16T01:27:47.906Z,15.46
2018-04-16T01:30:25.976Z,15.44
2018-04-16T01:32:59.431Z,15.42
2018-04-16T01:35:32.553Z,15.39
2018-04-16T01:38:06.259Z,15.41
2018-04-16T01:40:39.524Z,15.40
2018-04-16T01:43:12.615Z,15.40
2018-04-16T01:45:45.622Z,15.40
2018-04-16T01:48:18.991Z,15.43
2018-04-16T01:50:52.246Z,15.47
2018-04-16T01:53:25.386Z,15.40
2018-04-16T01:55:58.635Z,15.37
2018-04-16T01:58:31.720Z,15.34
2018-04-16T02:01:04.944Z,15.31
2018-04-16T02:03:38.134Z,15.32
2018-04-16T02:06:11.205Z,15.33
2018-04-16T02:08:44.188Z,15.34
2018-04-16T02:11:17.407Z,15.32
2018-04-16T02:16:55.244Z,15.24
2018-04-16T02:19:28.400Z,15.23
2018-04-16T02:22:01.582Z,15.21
2018-04-16T02:24:34.639Z,15.21
2018-04-16T02:27:07.731Z,15.23
2018-04-16T02:29:40.914Z,15.22
2018-04-16T02:32:13.988Z,15.13
2018-04-16T02:34:47.084Z,15.10
2018-04-16T02:37:20.272Z,15.12
2018-04-16T02:39:53.435Z,15.13
2018-04-16T02:42:26.576Z,15.14
2018-04-16T02:44:59.586Z,15.13
2018-04-16T02:47:32.853Z,15.12
2018-04-16T02:50:05.899Z,15.08
2018-04-16T02:52:39.289Z,15.07
2018-04-16T02:58:15.557Z,15.07
2018-04-16T03:03:52.830Z,15.12
2018-04-16T03:06:25.907Z,15.16
2018-04-16T03:08:59.021Z,15.20
2018-04-16T03:11:32.230Z,15.17
2018-04-16T03:14:05.459Z,15.05
2018-04-16T03:16:38.581Z,15.07
2018-04-16T03:19:12.090Z,15.06
2018-04-16T03:21:45.241Z,15.08
2018-04-16T03:24:18.495Z,15.09
2018-04-16T03:26:51.977Z,15.03
2018-04-16T03:29:25.123Z,15.04
2018-04-16T03:31:58.376Z,15.02
2018-04-16T03:34:31.318Z,15.03
2018-04-16T03:37:04.263Z,15.08
2018-04-16T03:39:37.544Z,15.08
2018-04-16T03:42:10.654Z,15.12
2018-04-16T03:44:44.071Z,15.13
2018-04-16T03:47:17.303Z,15.14
2018-04-16T03:49:50.562Z,15.10
2018-04-16T03:52:23.613Z,15.03
2018-04-16T03:57:54.219Z,15.02
2018-04-16T04:00:22.022Z,15.00
2018-04-16T04:02:49.533Z,14.97
2018-04-16T04:05:17.070Z,14.98
2018-04-16T04:07:44.605Z,14.98
2018-04-16T04:10:12.160Z,14.97
2018-04-16T04:12:39.724Z,14.97
2018-04-16T04:15:07.280Z,14.93
2018-04-16T04:17:34.807Z,14.89
2018-04-16T04:20:02.332Z,14.88
2018-04-16T04:22:41.739Z,14.89
2018-04-16T04:25:21.133Z,14.84
2018-04-16T04:28:00.446Z,14.82
2018-04-16T04:30:45.746Z,14.78
2018-04-16T04:33:13.260Z,14.72
2018-04-16T04:35:40.843Z,14.72
2018-04-16T04:38:08.374Z,14.68
2018-04-16T04:40:35.928Z,14.69
2018-04-16T04:43:03.431Z,14.69
2018-04-16T04:45:30.967Z,14.69
2018-04-16T04:47:58.632Z,14.71
2018-04-16T04:50:26.137Z,14.69
2018-04-16T04:52:53.648Z,14.71
2018-04-16T04:55:21.184Z,14.70
2018-04-16T04:57:48.714Z,14.69
2018-04-16T05:00:16.277Z,14.55
2018-04-16T05:02:43.811Z,14.52
2018-04-16T05:05:11.348Z,14.46
2018-04-16T05:07:38.904Z,14.45
2018-04-16T05:10:06.438Z,14.38
2018-04-16T05:12:33.998Z,14.39
2018-04-16T05:15:01.888Z,14.37
2018-04-16T05:17:29.460Z,14.37
2018-04-16T05:19:57.000Z,14.37
2018-04-16T05:22:24.560Z,14.36
2018-04-16T05:24:52.126Z,14.42
2018-04-16T05:27:19.670Z,14.40
2018-04-16T05:29:47.220Z,14.38
2018-04-16T05:32:14.793Z,14.37
2018-04-16T05:34:42.347Z,14.37
2018-04-16T05:37:09.906Z,14.34
2018-04-16T05:39:37.432Z,14.32
2018-04-16T05:42:04.978Z,14.25
2018-04-16T05:44:32.508Z,14.23
2018-04-16T05:47:00.047Z,14.21
2018-04-16T05:49:27.549Z,14.18
2018-04-16T05:51:55.085Z,14.20
2018-04-16T05:54:22.855Z,14.14
2018-04-16T05:56:50.381Z,14.14
2018-04-16T05:59:17.909Z,14.11
2018-04-16T06:01:45.431Z,14.08
2018-04-16T06:04:13.297Z,14.08
2018-04-16T06:06:40.962Z,14.08
2018-04-16T06:09:08.621Z,14.05
2018-04-16T06:11:36.187Z,14.07
2018-04-16T06:14:03.713Z,14.04
2018-04-16T06:16:31.280Z,14.04
2018-04-16T06:18:59.072Z,14.03
2018-04-16T06:21:26.626Z,14.03
2018-04-16T06:23:54.147Z,13.83
2018-04-16T06:26:21.695Z,13.79
2018-04-16T06:28:49.444Z,13.80
2018-04-16T06:31:17.117Z,13.82
2018-04-16T06:33:45.030Z,13.85
2018-04-16T06:36:12.542Z,13.83
2018-04-16T06:38:40.164Z,13.79
2018-04-16T06:41:07.715Z,13.78
2018-04-16T06:43:35.600Z,13.79
2018-04-16T06:46:03.141Z,13.76
2018-04-16T06:48:30.926Z,13.80
2018-04-16T06:50:58.482Z,13.91
2018-04-16T06:53:26.003Z,13.97
2018-04-16T06:55:53.554Z,13.98
2018-04-16T06:58:21.082Z,14.05
2018-04-16T07:00:48.633Z,14.07
2018-04-16T07:03:16.507Z,14.08
2018-04-16T07:05:44.036Z,14.08
2018-04-16T07:08:11.595Z,14.11
2018-04-16T07:10:39.120Z,14.07
2018-04-16T07:13:06.835Z,14.03
2018-04-16T07:15:34.374Z,14.04
2018-04-16T07:18:01.950Z,13.98
2018-04-16T07:20:29.487Z,13.98
2018-04-16T07:22:57.028Z,13.87
2018-04-16T07:25:24.574Z,13.82
2018-04-16T07:27:52.174Z,13.83
2018-04-16T07:30:19.727Z,13.83
2018-04-16T07:32:47.254Z,13.82
2018-04-16T07:35:15.100Z,13.85
2018-04-16T07:37:42.688Z,13.94
2018-04-16T07:40:10.328Z,14.02
2018-04-16T07:42:37.908Z,14.00
2018-04-16T07:45:05.708Z,13.97
2018-04-16T07:47:33.335Z,13.97
2018-04-16T07:50:00.979Z,13.96
2018-04-16T07:52:29.020Z,13.98
2018-04-16T07:54:57.117Z,14.07
2018-04-16T07:57:25.132Z,14.04
2018-04-16T07:59:53.568Z,13.97
2018-04-16T08:02:21.701Z,13.99
2018-04-16T08:04:49.658Z,14.02
2018-04-16T08:07:17.448Z,14.06
2018-04-16T08:09:45.047Z,14.05
2018-04-16T08:12:12.622Z,14.07
2018-04-16T08:14:40.148Z,14.02
2018-04-16T08:17:07.717Z,14.00
2018-04-16T08:19:37.077Z,14.02
2018-04-16T08:22:04.629Z,14.03
2018-04-16T08:24:32.155Z,13.99
2018-04-16T08:26:59.691Z,14.03
2018-04-16T08:29:27.231Z,14.11
2018-04-16T08:31:54.807Z,14.07
2018-04-16T08:34:22.372Z,14.11
2018-04-16T08:36:49.911Z,14.21
2018-04-16T08:39:17.822Z,14.26
2018-04-16T08:41:45.560Z,14.30
2018-04-16T08:44:13.091Z,14.34
2018-04-16T08:46:40.931Z,14.40
2018-04-16T08:49:08.447Z,14.40
2018-04-16T08:51:36.044Z,14.54
2018-04-16T08:54:03.569Z,14.60
2018-04-16T08:56:31.085Z,14.70
2018-04-16T08:58:58.608Z,14.84
2018-04-16T09:01:26.126Z,14.98
2018-04-16T09:03:53.663Z,15.06
2018-04-16T09:06:21.190Z,15.12
2018-04-16T09:08:48.817Z,15.10
2018-04-16T09:11:16.312Z,15.15
2018-04-16T09:13:44.183Z,15.24
2018-04-16T09:16:11.735Z,15.32
2018-04-16T09:18:39.288Z,15.35
2018-04-16T09:21:06.839Z,15.36
2018-04-16T09:23:34.365Z,15.34
2018-04-16T09:26:01.947Z,15.44
2018-04-16T09:28:29.476Z,15.53
2018-04-16T09:30:57.032Z,15.60
2018-04-16T09:33:24.602Z,15.56
2018-04-16T09:35:52.163Z,15.49
2018-04-16T09:38:19.759Z,15.56
2018-04-16T09:40:47.276Z,15.57
2018-04-16T09:43:14.840Z,15.63
2018-04-16T09:45:42.425Z,15.60
2018-04-16T09:48:10.233Z,15.63
2018-04-16T09:50:37.807Z,15.58
2018-04-16T09:53:05.375Z,15.60
2018-04-16T09:55:33.222Z,15.62
2018-04-16T09:58:00.751Z,15.66
2018-04-16T10:00:28.329Z,15.70
2018-04-16T10:02:57.883Z,15.69
2018-04-16T10:05:25.424Z,15.66
2018-04-16T10:07:53.001Z,15.68
2018-04-16T10:10:20.534Z,15.60
2018-04-16T10:12:48.281Z,15.56
2018-04-16T10:15:15.938Z,15.61
2018-04-16T10:17:44.143Z,15.58
2018-04-16T10:20:11.731Z,15.66
2018-04-16T10:22:39.691Z,15.80
2018-04-16T10:25:07.541Z,15.82
2018-04-16T10:27:35.639Z,15.95
2018-04-16T10:30:03.828Z,15.98
2018-04-16T10:32:31.491Z,16.11
2018-04-16T10:34:59.201Z,16.24
2018-04-16T10:37:27.015Z,16.36
2018-04-16T10:39:54.813Z,16.56
2018-04-16T10:42:22.788Z,16.72
2018-04-16T10:44:50.424Z,17.03
2018-04-16T10:47:17.948Z,17.17
2018-04-16T10:49:45.518Z,17.49
2018-04-16T10:52:13.060Z,17.74
2018-04-16T10:54:40.625Z,17.85
2018-04-16T10:57:08.576Z,18.03
2018-04-16T10:59:37.000Z,18.25
2018-04-16T11:02:04.558Z,18.53
2018-04-16T11:04:32.287Z,18.70
2018-04-16T11:06:59.849Z,18.75
2018-04-16T11:09:27.427Z,18.78
2018-04-16T11:11:55.009Z,18.96
2018-04-16T11:14:22.620Z,19.36
2018-04-16T11:16:50.213Z,19.48
2018-04-16T11:19:17.744Z,19.60
2018-04-16T11:21:45.375Z,19.66
2018-04-16T11:24:12.887Z,20.15
2018-04-16T11:26:40.431Z,20.25
2018-04-16T11:29:07.990Z,20.46
2018-04-16T11:31:35.541Z,21.14
2018-04-16T11:34:03.115Z,21.43
2018-04-16T11:36:30.656Z,22.01
2018-04-16T11:38:58.177Z,22.53
2018-04-16T11:41:25.769Z,22.86
2018-04-16T11:43:53.296Z,23.24
2018-04-16T11:46:20.882Z,23.36
2018-04-16T11:48:48.437Z,23.32
2018-04-16T11:51:15.990Z,23.72
2018-04-16T11:53:43.544Z,23.53
2018-04-16T11:56:11.108Z,24.13
2018-04-16T11:58:38.675Z,24.17
2018-04-16T12:01:06.201Z,24.15
2018-04-16T12:03:34.074Z,24.31
2018-04-16T12:06:01.633Z,25.06
2018-04-16T12:08:29.323Z,25.38
2018-04-16T12:10:56.888Z,25.31
2018-04-16T12:13:24.658Z,25.40
2018-04-16T12:15:52.180Z,24.41
2018-04-16T12:18:19.766Z,23.69
2018-04-16T12:20:47.322Z,22.93
2018-04-16T12:23:14.852Z,22.30
2018-04-16T12:25:42.416Z,21.46
2018-04-16T12:28:09.941Z,21.18
2018-04-16T12:30:37.697Z,21.11
2018-04-16T12:33:05.227Z,20.79
2018-04-16T12:35:32.840Z,20.61
2018-04-16T12:38:00.401Z,20.63
2018-04-16T12:40:27.961Z,20.42
2018-04-16T12:42:55.513Z,20.22
2018-04-16T12:45:23.062Z,20.16
2018-04-16T12:47:50.627Z,20.24
2018-04-16T12:50:18.159Z,20.54
2018-04-16T12:52:46.005Z,20.68
2018-04-16T12:55:13.568Z,20.82
2018-04-16T12:57:41.195Z,21.02
2018-04-16T13:00:08.754Z,21.12
2018-04-16T13:02:36.377Z,20.83
2018-04-16T13:05:03.915Z,20.47
2018-04-16T13:07:31.467Z,20.16
2018-04-16T13:09:59.348Z,20.03
2018-04-16T13:12:26.902Z,19.93
2018-04-16T13:14:54.521Z,19.64
2018-04-16T13:17:22.068Z,19.52
2018-04-16T13:19:49.689Z,19.18
2018-04-16T13:22:17.216Z,19.21
2018-04-16T13:24:45.128Z,19.18
2018-04-16T13:27:13.192Z,19.19
2018-04-16T13:29:40.768Z,19.17
2018-04-16T13:32:08.531Z,19.00
2018-04-16T13:34:37.325Z,18.87
2018-04-16T13:37:05.041Z,18.78
2018-04-16T13:39:32.745Z,18.68
2018-04-16T13:42:00.498Z,18.55
2018-04-16T13:44:29.298Z,18.44
2018-04-16T13:46:57.721Z,18.30
2018-04-16T13:49:25.556Z,18.23
2018-04-16T13:51:53.152Z,17.93
2018-04-16T13:54:20.785Z,17.90
2018-04-16T13:56:48.341Z,17.79
2018-04-16T13:59:15.895Z,17.75
2018-04-16T14:01:43.487Z,17.67
2018-04-16T14:04:11.010Z,17.60
2018-04-16T14:06:38.679Z,17.52
2018-04-16T14:09:06.263Z,17.49
2018-04-16T14:11:33.809Z,17.42
2018-04-16T14:14:03.128Z,17.39
2018-04-16T14:16:30.658Z,17.28
2018-04-16T14:18:58.216Z,17.10
2018-04-16T14:21:25.794Z,17.10
2018-04-16T14:23:53.373Z,17.13
2018-04-16T14:26:21.012Z,17.13
2018-04-16T14:28:48.600Z,17.00
2018-04-16T14:31:16.460Z,17.05
2018-04-16T14:33:44.121Z,17.00
2018-04-16T14:36:11.651Z,16.99
2018-04-16T14:38:39.274Z,16.84
2018-04-16T14:41:06.942Z,16.80
2018-04-16T14:43:34.492Z,16.72
2018-04-16T14:46:02.102Z,16.74
2018-04-16T14:48:29.721Z,16.69
2018-04-16T14:50:57.317Z,16.64
2018-04-16T14:53:24.885Z,16.61
2018-04-16T14:55:52.458Z,16.57
2018-04-16T14:58:20.405Z,16.54
2018-04-16T15:00:48.569Z,16.47
2018-04-16T15:03:16.404Z,16.41
2018-04-16T15:05:43.976Z,16.45
2018-04-16T15:08:11.606Z,16.28
2018-04-16T15:10:39.200Z,16.33
2018-04-16T15:13:06.806Z,16.29
2018-04-16T15:15:34.531Z,16.25
2018-04-16T15:18:02.092Z,16.23
2018-04-16T15:20:29.642Z,16.18
2018-04-16T15:22:57.196Z,16.20
2018-04-16T15:25:27.353Z,16.19
2018-04-16T15:27:55.200Z,16.18
2018-04-16T15:30:22.782Z,16.11
2018-04-16T15:32:50.577Z,15.96
2018-04-16T15:35:19.080Z,15.94
2018-04-16T15:37:46.633Z,15.96
2018-04-16T15:40:14.201Z,16.00
2018-04-16T15:42:41.744Z,15.93
2018-04-16T15:45:09.349Z,15.80
2018-04-16T15:47:37.299Z,15.72
2018-04-16T15:50:04.836Z,15.75
2018-04-16T15:52:33.360Z,15.79
2018-04-16T15:55:01.251Z,15.80
2018-04-16T15:57:28.773Z,15.72
2018-04-16T15:59:56.369Z,15.78
2018-04-16T16:02:24.227Z,15.75
2018-04-16T16:04:51.855Z,15.79
2018-04-16T16:07:19.411Z,15.81
2018-04-16T16:09:47.014Z,15.67
2018-04-16T16:12:14.584Z,15.71
2018-04-16T16:14:42.157Z,15.76
2018-04-16T16:17:09.756Z,15.72
2018-04-16T16:19:37.294Z,15.72
2018-04-16T16:22:04.813Z,15.70
2018-04-16T16:24:32.399Z,15.68
2018-04-16T16:26:59.928Z,15.71
2018-04-16T16:29:27.478Z,15.75
2018-04-16T16:31:55.035Z,15.77
2018-04-16T16:34:22.586Z,15.80
2018-04-16T16:36:50.299Z,15.72
2018-04-16T16:39:17.858Z,15.72
2018-04-16T16:41:45.725Z,15.75
2018-04-16T16:44:13.241Z,15.79
2018-04-16T16:46:41.156Z,15.70
2018-04-16T16:49:09.142Z,15.74
2018-04-16T16:51:36.701Z,15.75
2018-04-16T16:54:04.451Z,15.75
2018-04-16T16:56:32.937Z,15.67
2018-04-16T16:59:00.564Z,15.69
2018-04-16T17:01:28.135Z,15.69
2018-04-16T17:03:55.796Z,15.71
2018-04-16T17:06:23.798Z,15.63
2018-04-16T17:08:52.071Z,15.67
2018-04-16T17:11:19.686Z,15.74
2018-04-16T17:13:47.525Z,15.74
2018-04-16T17:16:15.126Z,15.76
2018-04-16T17:18:42.760Z,15.68
2018-04-16T17:21:10.382Z,15.62
2018-04-16T17:23:37.905Z,15.63
2018-04-16T17:26:05.536Z,15.66
2018-04-16T17:28:33.079Z,15.72
2018-04-16T17:31:00.645Z,15.73
2018-04-16T17:33:28.283Z,15.69
2018-04-16T17:35:55.835Z,15.68
2018-04-16T17:38:23.493Z,15.70
2018-04-16T17:40:51.049Z,15.72
2018-04-16T17:43:18.647Z,15.72
2018-04-16T17:45:46.182Z,15.72
2018-04-16T17:48:13.764Z,15.70
2018-04-16T17:50:41.334Z,15.69
2018-04-16T17:53:08.865Z,15.67
2018-04-16T17:55:36.427Z,15.67
2018-04-16T17:58:03.934Z,15.68
2018-04-16T18:00:31.575Z,15.67
2018-04-16T18:02:59.163Z,15.66
2018-04-16T18:05:27.002Z,15.64
2018-04-16T18:07:54.907Z,15.61
2018-04-16T18:10:22.534Z,15.61
2018-04-16T18:12:50.089Z,15.60
2018-04-16T18:15:17.612Z,15.59
2018-04-16T18:17:45.619Z,15.59
2018-04-16T18:20:13.189Z,15.58
2018-04-16T18:22:40.741Z,15.51
2018-04-16T18:25:08.307Z,15.48
2018-04-16T18:27:35.936Z,15.46
2018-04-16T18:30:03.827Z,15.49
2018-04-16T18:32:31.413Z,15.49
2018-04-16T18:34:58.959Z,15.51
2018-04-16T18:37:26.540Z,15.52
2018-04-16T18:39:54.060Z,15.53
2018-04-16T18:42:21.615Z,15.53
2018-04-16T18:44:49.216Z,15.53
2018-04-16T18:47:16.787Z,15.55
2018-04-16T18:49:44.350Z,15.54
2018-04-16T18:52:11.878Z,15.51
2018-04-16T18:54:39.394Z,15.49
2018-04-16T18:57:07.417Z,15.50
2018-04-16T18:59:34.952Z,15.48
2018-04-16T19:02:02.589Z,15.47
2018-04-16T19:04:30.130Z,15.48
2018-04-16T19:06:58.105Z,15.49
2018-04-16T19:09:25.885Z,15.48
2018-04-16T19:11:53.570Z,15.48
2018-04-16T19:14:21.099Z,15.46
2018-04-16T19:16:48.655Z,15.47
2018-04-16T19:19:16.242Z,15.46
2018-04-16T19:21:49.357Z,15.45
2018-04-16T19:24:16.921Z,15.44
2018-04-16T19:26:50.301Z,15.43
2018-04-16T19:29:19.927Z,15.42
2018-04-16T19:31:47.629Z,15.41
2018-04-16T19:34:26.337Z,15.40
2018-04-16T19:36:54.192Z,15.41
2018-04-16T19:39:21.829Z,15.38
2018-04-16T19:41:56.157Z,15.36
2018-04-16T19:44:23.805Z,15.35
2018-04-16T19:46:51.431Z,15.33
2018-04-16T19:49:24.497Z,15.32
2018-04-16T19:51:52.290Z,15.28
2018-04-16T19:54:20.842Z,15.27
2018-04-16T19:59:51.685Z,15.23
2018-04-16T20:02:24.793Z,15.21
2018-04-16T20:04:52.960Z,15.21
2018-04-16T20:07:20.547Z,15.20
2018-04-16T20:09:48.134Z,15.18
2018-04-16T20:12:16.853Z,15.10
2018-04-16T20:14:44.516Z,15.10
2018-04-16T20:17:12.796Z,15.11
2018-04-16T20:19:40.475Z,15.13
2018-04-16T20:22:08.087Z,15.10
2018-04-16T20:24:35.711Z,15.11
2018-04-16T20:27:03.230Z,15.07
2018-04-16T20:29:30.986Z,15.03
2018-04-16T20:31:58.661Z,15.03
2018-04-16T20:34:26.325Z,15.01
2018-04-16T20:36:54.108Z,15.03
2018-04-16T20:39:23.107Z,15.01
2018-04-16T20:41:50.895Z,15.01
2018-04-16T20:44:18.458Z,15.02
2018-04-16T20:46:46.013Z,14.99
2018-04-16T20:49:13.636Z,14.94
2018-04-16T20:51:41.223Z,14.92
2018-04-16T20:54:08.820Z,14.90
2018-04-16T20:56:36.747Z,14.90
2018-04-16T20:59:04.476Z,14.89
2018-04-16T21:01:32.334Z,14.87
2018-04-16T21:04:00.462Z,14.84
2018-04-16T21:06:31.136Z,14.78
2018-04-16T21:08:59.438Z,14.75
2018-04-16T21:11:27.028Z,14.74
2018-04-16T21:13:55.056Z,14.71
2018-04-16T21:16:22.604Z,14.70
2018-04-16T21:18:50.258Z,14.67
2018-04-16T21:21:19.966Z,14.64
2018-04-16T21:23:52.324Z,14.60
2018-04-16T21:26:22.515Z,14.57
2018-04-16T21:28:50.350Z,14.56
2018-04-16T21:31:18.271Z,14.54
2018-04-16T21:33:45.795Z,14.52
2018-04-16T21:36:13.439Z,14.50
2018-04-16T21:38:40.971Z,14.50
2018-04-16T21:41:08.569Z,14.46
2018-04-16T21:43:39.583Z,14.47
2018-04-16T21:46:09.207Z,14.47
2018-04-16T21:48:36.811Z,14.45
2018-04-16T21:51:04.524Z,14.43
2018-04-16T21:53:32.374Z,14.44
2018-04-16T21:56:00.580Z,14.40
2018-04-16T21:58:28.209Z,14.33
2018-04-16T22:00:55.844Z,14.30
2018-04-16T22:03:23.478Z,14.26
2018-04-16T22:05:51.236Z,14.26
2018-04-16T22:08:19.835Z,14.27
2018-04-16T22:10:49.441Z,14.25
2018-04-16T22:13:16.986Z,14.22
2018-04-16T22:15:45.203Z,14.23
2018-04-16T22:18:13.439Z,14.17
2018-04-16T22:20:41.386Z,14.15
2018-04-16T22:23:08.949Z,14.17
2018-04-16T22:25:36.485Z,14.17
2018-04-16T22:28:04.014Z,14.16
2018-04-16T22:30:32.453Z,14.14
2018-04-16T22:33:00.017Z,14.13
2018-04-16T22:35:27.541Z,14.15
2018-04-16T22:37:55.876Z,14.17
2018-04-16T22:40:23.428Z,14.13
2018-04-16T22:42:51.077Z,14.07
2018-04-16T22:45:18.646Z,14.07
2018-04-16T22:47:46.471Z,14.08
2018-04-16T22:50:14.000Z,14.08
2018-04-16T22:52:41.561Z,14.09
2018-04-16T22:55:09.120Z,14.09
2018-04-16T22:57:36.642Z,14.06
2018-04-16T23:00:04.473Z,14.01
2018-04-16T23:02:32.052Z,13.98
2018-04-16T23:04:59.594Z,13.98
2018-04-16T23:07:27.133Z,13.97
2018-04-16T23:09:54.637Z,13.95
2018-04-16T23:12:22.171Z,13.89
2018-04-16T23:14:49.726Z,13.89
2018-04-16T23:17:17.257Z,13.90
2018-04-16T23:19:44.846Z,13.89
2018-04-16T23:22:15.178Z,13.87
2018-04-16T23:24:42.752Z,13.83
2018-04-16T23:27:10.617Z,13.87
2018-04-16T23:29:38.600Z,13.86
2018-04-16T23:32:06.129Z,13.86
2018-04-16T23:34:33.964Z,13.84
2018-04-16T23:37:01.511Z,13.87
2018-04-16T23:39:29.334Z,13.89
2018-04-16T23:41:56.852Z,13.88
2018-04-16T23:44:24.408Z,13.88
2018-04-16T23:46:51.948Z,13.85
2018-04-16T23:49:19.481Z,13.87
2018-04-16T23:51:47.045Z,13.87
2018-04-16T23:54:14.577Z,13.83
2018-04-16T23:56:42.900Z,13.83
2018-04-16T23:59:10.482Z,13.80
